Time;durP1;ratioP1;P1;durP2;ratioP2;P2;SDS_P1;SDS_P2;PMS_P1;PMS_P2;Temp;Humidity;BMP_temperature;BMP_pressure;BME280_temperature;BME280_humidity;BME280_pressure;Samples;Min_cycle;Max_cycle;Signal;HPM_P1;HPM_P2
2023/03/22 00:01:52;;;;;;;1.25;0.55;;;10.50;99.90;;;;;;4406964;32;20089;-72
2023/03/22 00:04:18;;;;;;;1.60;1.48;;;10.50;99.90;;;;;;4408716;32;20113;-73
2023/03/22 00:06:44;;;;;;;7.00;0.73;;;10.50;99.90;;;;;;4410022;32;20089;-73
2023/03/22 00:09:11;;;;;;;0.57;0.57;;;10.50;99.90;;;;;;4408101;32;20098;-72
2023/03/22 00:11:36;;;;;;;0.50;0.50;;;10.50;99.90;;;;;;4408022;32;20106;-72
2023/03/22 00:14:02;;;;;;;0.73;0.73;;;10.50;99.90;;;;;;4407293;32;20093;-72
2023/03/22 00:16:27;;;;;;;0.80;0.80;;;10.50;99.90;;;;;;4408663;32;20180;-73
2023/03/22 00:18:53;;;;;;;0.95;0.93;;;10.50;99.90;;;;;;4408332;32;20432;-72
2023/03/22 00:21:18;;;;;;;18.73;0.85;;;10.40;99.90;;;;;;4408851;32;20074;-72
2023/03/22 00:23:44;;;;;;;3.65;0.80;;;10.40;99.90;;;;;;4406153;32;20089;-72
2023/03/22 00:26:11;;;;;;;0.50;0.50;;;10.40;99.90;;;;;;4406727;32;20081;-73
2023/03/22 00:28:37;;;;;;;0.75;0.60;;;10.50;99.90;;;;;;4407223;32;20066;-73
2023/03/22 00:31:04;;;;;;;6.10;1.25;;;10.50;99.90;;;;;;4405995;32;20118;-72
2023/03/22 00:33:31;;;;;;;6.60;1.15;;;10.50;99.90;;;;;;4408394;32;20136;-74
2023/03/22 00:35:59;;;;;;;1.45;1.08;;;10.50;99.90;;;;;;4404805;32;20101;-73
2023/03/22 00:38:25;;;;;;;0.60;0.60;;;10.40;99.90;;;;;;4408109;32;20131;-73
2023/03/22 00:40:50;;;;;;;0.80;0.73;;;10.50;99.90;;;;;;4406464;32;20707;-73
2023/03/22 00:43:16;;;;;;;3.03;1.10;;;10.50;99.90;;;;;;4406033;32;20180;-74
2023/03/22 00:45:42;;;;;;;0.65;0.65;;;10.50;99.90;;;;;;4404910;32;20443;-72
2023/03/22 00:48:10;;;;;;;0.50;0.50;;;10.60;99.90;;;;;;4407827;32;20070;-73
2023/03/22 00:50:37;;;;;;;0.82;0.82;;;10.40;99.90;;;;;;4406172;32;20102;-74
2023/03/22 00:53:03;;;;;;;3.33;0.98;;;10.40;99.90;;;;;;4408085;32;20068;-72
2023/03/22 00:55:30;;;;;;;3.05;1.55;;;10.40;99.90;;;;;;4406536;32;20439;-73
2023/03/22 00:57:55;;;;;;;3.05;1.15;;;10.20;99.90;;;;;;4405549;32;20090;-74
2023/03/22 01:00:21;;;;;;;1.02;0.75;;;10.20;99.90;;;;;;4405155;32;20116;-72
2023/03/22 01:02:46;;;;;;;1.27;1.17;;;10.20;99.90;;;;;;4407213;32;20086;-73
2023/03/22 01:05:14;;;;;;;0.65;0.65;;;10.30;99.90;;;;;;4407257;32;20114;-73
2023/03/22 01:07:41;;;;;;;0.73;0.73;;;10.20;99.90;;;;;;4408403;32;20066;-73
2023/03/22 01:10:10;;;;;;;0.50;0.50;;;10.30;99.90;;;;;;4406006;32;20065;-73
2023/03/22 01:12:36;;;;;;;1.98;1.48;;;10.30;99.90;;;;;;4406098;32;20118;-72
2023/03/22 01:15:03;;;;;;;0.85;0.62;;;10.30;99.90;;;;;;4405545;32;20094;-72
2023/03/22 01:17:29;;;;;;;0.85;0.85;;;10.30;99.90;;;;;;4408099;32;20121;-72
2023/03/22 01:19:55;;;;;;;0.88;0.88;;;10.40;99.90;;;;;;4406570;32;20518;-72
2023/03/22 01:22:20;;;;;;;4.18;1.25;;;10.40;99.90;;;;;;4405768;32;20081;-73
2023/03/22 01:24:47;;;;;;;1.20;0.82;;;10.40;99.90;;;;;;4403600;32;20561;-72
2023/03/22 01:27:13;;;;;;;0.90;0.82;;;10.30;99.90;;;;;;4406826;32;20114;-72
2023/03/22 01:29:38;;;;;;;2.87;1.15;;;10.30;99.90;;;;;;4407700;32;20069;-72
2023/03/22 01:32:05;;;;;;;1.05;0.82;;;10.30;99.90;;;;;;4405235;32;20124;-73
2023/03/22 01:34:30;;;;;;;1.00;0.68;;;10.30;99.90;;;;;;4407274;32;20066;-73
2023/03/22 01:36:56;;;;;;;0.80;0.80;;;10.30;99.90;;;;;;4406120;32;20136;-73
2023/03/22 01:39:21;;;;;;;3.40;0.90;;;10.20;99.90;;;;;;4405687;32;20097;-72
2023/03/22 01:41:47;;;;;;;0.82;0.60;;;10.20;99.90;;;;;;4405041;32;20065;-72
2023/03/22 01:44:15;;;;;;;0.50;0.50;;;10.20;99.90;;;;;;4405094;32;20086;-72
2023/03/22 01:46:42;;;;;;;0.52;0.52;;;10.20;99.90;;;;;;4406721;32;20114;-72
2023/03/22 01:49:14;;;;;;;0.45;0.45;;;10.20;99.90;;;;;;4403994;32;20082;-72
2023/03/22 01:51:41;;;;;;;2.58;1.77;;;10.20;99.90;;;;;;4405038;32;20607;-72
2023/03/22 01:54:11;;;;;;;1.58;1.08;;;10.20;99.90;;;;;;4406647;32;20093;-72
2023/03/22 01:56:39;;;;;;;4.00;1.23;;;10.20;99.90;;;;;;4405874;32;20102;-72
2023/03/22 01:59:09;;;;;;;0.60;0.60;;;10.20;99.90;;;;;;4407426;32;20125;-72
2023/03/22 02:01:35;;;;;;;0.85;0.70;;;10.20;99.90;;;;;;4406051;32;20141;-74
2023/03/22 02:04:22;;;;;;;0.52;0.52;;;10.20;99.90;;;;;;4407588;32;20073;-73
2023/03/22 02:06:52;;;;;;;0.60;0.60;;;10.10;99.90;;;;;;4405145;32;20463;-72
2023/03/22 02:09:20;;;;;;;1.50;1.05;;;10.10;99.90;;;;;;4407611;32;20509;-72
2023/03/22 02:11:58;;;;;;;8.25;0.73;;;10.10;99.90;;;;;;4406117;32;20588;-72
2023/03/22 02:14:49;;;;;;;1.45;0.70;;;10.00;99.90;;;;;;4406179;32;20081;-72
2023/03/22 02:17:41;;;;;;;5.07;2.28;;;10.00;99.90;;;;;;4407391;32;20066;-72
2023/03/22 02:20:21;;;;;;;3.22;0.80;;;10.00;99.90;;;;;;4406585;32;20098;-74
2023/03/22 02:23:14;;;;;;;0.50;0.50;;;10.00;99.90;;;;;;4407668;32;20552;-74
2023/03/22 02:26:18;;;;;;;1.10;0.98;;;9.90;99.90;;;;;;4403056;32;20070;-72
2023/03/22 02:29:12;;;;;;;0.57;0.57;;;9.80;99.90;;;;;;4404005;32;20148;-73
2023/03/22 02:31:56;;;;;;;0.30;0.30;;;9.80;99.90;;;;;;4405456;32;20093;-73
2023/03/22 02:34:39;;;;;;;0.50;0.50;;;9.90;99.90;;;;;;4406980;32;20073;-73
2023/03/22 02:37:45;;;;;;;0.60;0.60;;;9.80;99.90;;;;;;4405756;32;20078;-73
2023/03/22 02:40:33;;;;;;;2.92;1.35;;;9.90;99.90;;;;;;4393946;32;20153;-73
2023/03/22 02:43:14;;;;;;;0.73;0.62;;;9.90;99.90;;;;;;4404464;32;20136;-73
2023/03/22 02:46:04;;;;;;;1.05;0.88;;;9.90;99.90;;;;;;4404683;32;20061;-73
2023/03/22 02:48:39;;;;;;;0.93;0.47;;;9.90;99.90;;;;;;4403369;32;20101;-72
2023/03/22 02:51:11;;;;;;;0.90;0.57;;;9.90;99.90;;;;;;4405447;32;20113;-72
2023/03/22 02:53:44;;;;;;;1.20;0.93;;;9.90;99.90;;;;;;4406500;32;20085;-74
2023/03/22 02:56:32;;;;;;;0.80;0.65;;;10.00;99.90;;;;;;4406561;32;20062;-72
2023/03/22 02:59:02;;;;;;;1.15;0.82;;;9.90;99.90;;;;;;4404963;32;20085;-73
2023/03/22 03:01:33;;;;;;;0.60;0.60;;;9.90;99.90;;;;;;4406647;32;20102;-73
2023/03/22 03:04:03;;;;;;;0.88;0.80;;;9.90;99.90;;;;;;4407509;32;20616;-73
2023/03/22 03:06:34;;;;;;;1.05;0.80;;;9.80;99.90;;;;;;4408362;32;20133;-72
2023/03/22 03:09:03;;;;;;;;;;;9.80;99.90;;;;;;4407217;32;20417;-73
2023/03/22 03:11:29;;;;;;;0.68;0.68;;;9.80;99.90;;;;;;4408198;32;20307;-73
2023/03/22 03:13:55;;;;;;;2.78;1.27;;;9.70;99.90;;;;;;4407911;32;20552;-73
2023/03/22 03:16:25;;;;;;;0.77;0.77;;;9.50;99.90;;;;;;4407364;32;20155;-73
2023/03/22 03:18:59;;;;;;;2.33;1.42;;;9.50;99.90;;;;;;4407726;32;20524;-74
2023/03/22 03:21:52;;;;;;;0.57;0.57;;;9.50;99.90;;;;;;4403234;32;20129;-74
2023/03/22 03:24:26;;;;;;;1.58;0.90;;;9.50;99.90;;;;;;4406411;32;20106;-75
2023/03/22 03:27:18;;;;;;;0.95;0.65;;;9.50;99.90;;;;;;4405605;32;20092;-74
2023/03/22 03:30:08;;;;;;;1.05;0.73;;;9.50;99.90;;;;;;4406751;32;20053;-74
2023/03/22 03:32:41;;;;;;;1.05;0.85;;;9.40;99.90;;;;;;4405998;32;21173;-73
2023/03/22 03:35:21;;;;;;;0.60;0.60;;;9.50;99.90;;;;;;4407373;32;20081;-71
2023/03/22 03:37:51;;;;;;;0.37;0.37;;;9.50;99.90;;;;;;4407539;32;20100;-72
2023/03/22 03:40:27;;;;;;;0.50;0.50;;;9.50;99.90;;;;;;4405189;32;20107;-73
2023/03/22 03:42:55;;;;;;;3.05;0.93;;;9.30;99.90;;;;;;4407763;32;20090;-73
2023/03/22 03:45:22;;;;;;;0.60;0.60;;;9.30;99.90;;;;;;4407469;32;20085;-74
2023/03/22 03:47:55;;;;;;;1.98;0.85;;;9.30;99.90;;;;;;4406007;32;20069;-74
2023/03/22 03:50:22;;;;;;;0.47;0.47;;;9.30;99.90;;;;;;4408867;32;20066;-74
2023/03/22 03:52:48;;;;;;;0.52;0.52;;;9.20;99.90;;;;;;4409059;32;20109;-74
2023/03/22 03:55:14;;;;;;;0.50;0.50;;;9.20;99.90;;;;;;4407369;32;20518;-73
2023/03/22 03:57:39;;;;;;;0.50;0.50;;;9.30;99.90;;;;;;4408780;32;20093;-72
2023/03/22 04:00:06;;;;;;;0.50;0.37;;;9.30;99.90;;;;;;4407640;32;20082;-72
2023/03/22 04:02:31;;;;;;;1.85;0.73;;;9.30;99.90;;;;;;4407614;32;20078;-72
2023/03/22 04:04:57;;;;;;;2.15;0.77;;;9.40;99.90;;;;;;4409170;32;20087;-72
2023/03/22 04:07:23;;;;;;;0.85;0.62;;;9.30;99.90;;;;;;4407166;32;20110;-72
2023/03/22 04:09:48;;;;;;;1.33;0.75;;;9.40;99.90;;;;;;4409205;32;20085;-73
2023/03/22 04:12:14;;;;;;;0.75;0.73;;;9.40;99.90;;;;;;4406968;32;20057;-74
2023/03/22 04:14:40;;;;;;;0.73;0.73;;;9.50;99.90;;;;;;4407179;32;20085;-74
2023/03/22 04:17:06;;;;;;;7.78;0.70;;;9.50;99.90;;;;;;4408474;32;20079;-74
2023/03/22 04:19:31;;;;;;;10.98;1.20;;;9.40;99.90;;;;;;4409051;32;20070;-73
2023/03/22 04:21:57;;;;;;;0.60;0.60;;;9.30;99.90;;;;;;4407366;32;20101;-74
2023/03/22 04:24:22;;;;;;;0.62;0.62;;;9.20;99.90;;;;;;4404222;32;20128;-74
2023/03/22 04:26:48;;;;;;;1.15;1.05;;;9.10;99.90;;;;;;4393952;32;20109;-73
2023/03/22 04:29:14;;;;;;;1.20;0.75;;;9.20;99.90;;;;;;4407059;32;20085;-75
2023/03/22 04:31:40;;;;;;;1.08;0.73;;;9.30;99.90;;;;;;4405147;32;20513;-74
2023/03/22 04:34:05;;;;;;;0.70;0.70;;;9.30;99.90;;;;;;4404664;32;20064;-73
2023/03/22 04:36:38;;;;;;;0.73;0.60;;;9.20;99.90;;;;;;4403258;32;20438;-73
2023/03/22 04:39:05;;;;;;;0.45;0.45;;;9.30;99.90;;;;;;4406152;32;20066;-74
2023/03/22 04:41:31;;;;;;;2.08;0.62;;;9.30;99.90;;;;;;4405754;32;20106;-74
2023/03/22 04:44:01;;;;;;;0.70;0.70;;;9.30;99.90;;;;;;4406176;32;20488;-73
2023/03/22 04:46:29;;;;;;;4.90;1.53;;;9.30;99.90;;;;;;4406134;32;20117;-73
2023/03/22 04:48:55;;;;;;;0.77;0.77;;;9.30;99.90;;;;;;4408891;32;20061;-73
2023/03/22 04:51:21;;;;;;;0.57;0.55;;;9.30;99.90;;;;;;4407907;32;20128;-73
2023/03/22 04:53:46;;;;;;;2.80;0.80;;;9.40;99.90;;;;;;4408405;32;20081;-72
2023/03/22 04:56:14;;;;;;;11.32;1.10;;;9.40;99.90;;;;;;4406581;32;20118;-72
2023/03/22 04:58:41;;;;;;;0.62;0.62;;;9.40;99.90;;;;;;4406203;32;20069;-73
2023/03/22 05:01:09;;;;;;;0.60;0.60;;;9.40;99.90;;;;;;4406767;32;20548;-74
2023/03/22 05:03:36;;;;;;;4.87;1.25;;;9.30;99.90;;;;;;4409096;32;21249;-72
2023/03/22 05:06:03;;;;;;;0.80;0.80;;;9.20;99.90;;;;;;4406532;32;20098;-73
2023/03/22 05:08:29;;;;;;;1.00;0.90;;;9.30;99.90;;;;;;4407757;32;20109;-73
2023/03/22 05:10:56;;;;;;;1.65;0.70;;;9.20;99.90;;;;;;4407923;32;20152;-73
2023/03/22 05:13:24;;;;;;;0.43;0.43;;;9.20;99.90;;;;;;4408643;32;20140;-73
2023/03/22 05:15:50;;;;;;;0.85;0.75;;;9.20;99.90;;;;;;4407863;32;20548;-72
2023/03/22 05:18:19;;;;;;;0.82;0.60;;;9.20;99.90;;;;;;4407335;32;20121;-73
2023/03/22 05:20:45;;;;;;;0.68;0.68;;;9.30;99.90;;;;;;4404843;32;20124;-72
2023/03/22 05:23:11;;;;;;;1.27;1.15;;;9.20;99.90;;;;;;4400517;32;20435;-72
2023/03/22 05:25:37;;;;;;;1.37;1.05;;;9.20;99.90;;;;;;4404646;32;20074;-72
2023/03/22 05:28:03;;;;;;;0.55;0.55;;;9.30;99.90;;;;;;4405277;32;20086;-72
2023/03/22 05:30:30;;;;;;;2.37;1.27;;;9.30;99.90;;;;;;4405176;32;20536;-72
2023/03/22 05:33:02;;;;;;;0.50;0.50;;;9.30;99.90;;;;;;4407238;32;20110;-73
2023/03/22 05:35:28;;;;;;;5.72;1.70;;;9.30;99.90;;;;;;4406985;32;20171;-73
2023/03/22 05:37:54;;;;;;;0.52;0.52;;;9.30;99.90;;;;;;4407581;32;20153;-75
2023/03/22 05:40:20;;;;;;;1.92;0.80;;;9.30;99.90;;;;;;4406958;32;20130;-74
2023/03/22 05:42:45;;;;;;;1.30;0.88;;;9.40;99.90;;;;;;4406547;32;20090;-74
2023/03/22 05:45:11;;;;;;;0.45;0.45;;;9.30;99.90;;;;;;4405408;32;20517;-75
2023/03/22 05:47:38;;;;;;;3.30;1.20;;;9.40;99.90;;;;;;4405720;32;20101;-74
2023/03/22 05:50:05;;;;;;;3.12;1.37;;;9.40;99.90;;;;;;4406438;32;20102;-75
2023/03/22 05:52:31;;;;;;;1.23;0.80;;;9.50;99.90;;;;;;4408501;32;20099;-74
2023/03/22 05:54:56;;;;;;;0.68;0.68;;;9.40;99.90;;;;;;4406561;32;20090;-74
2023/03/22 05:57:22;;;;;;;3.87;2.35;;;9.40;99.90;;;;;;4407808;32;20070;-72
2023/03/22 05:59:47;;;;;;;0.60;0.60;;;9.40;99.90;;;;;;4406875;32;20099;-72
2023/03/22 06:02:13;;;;;;;2.08;1.12;;;9.40;99.90;;;;;;4402911;32;20139;-72
2023/03/22 06:04:40;;;;;;;0.40;0.40;;;9.40;99.90;;;;;;4403142;32;20447;-72
2023/03/22 06:07:06;;;;;;;0.60;0.60;;;9.40;99.90;;;;;;4406493;32;20081;-74
2023/03/22 06:09:32;;;;;;;0.93;0.93;;;9.40;99.90;;;;;;4401838;32;20140;-74
2023/03/22 06:11:58;;;;;;;0.68;0.68;;;9.40;99.90;;;;;;4399280;32;20082;-73
2023/03/22 06:14:23;;;;;;;0.77;0.77;;;9.50;99.90;;;;;;4404056;32;20132;-74
2023/03/22 06:16:49;;;;;;;0.70;0.70;;;9.50;99.90;;;;;;4396066;32;20808;-74
2023/03/22 06:19:16;;;;;;;1.37;0.90;;;9.50;99.90;;;;;;4395956;32;20142;-74
2023/03/22 06:21:41;;;;;;;1.27;0.88;;;9.40;99.90;;;;;;4404308;32;20549;-74
2023/03/22 06:24:07;;;;;;;1.85;1.08;;;9.50;99.90;;;;;;4401265;32;20089;-74
2023/03/22 06:26:32;;;;;;;1.33;0.65;;;9.50;99.90;;;;;;4389797;32;20613;-73
2023/03/22 06:29:01;;;;;;;0.52;0.52;;;9.60;99.90;;;;;;4398245;32;20109;-74
2023/03/22 06:31:26;;;;;;;0.85;0.65;;;9.50;99.90;;;;;;4383369;32;20109;-74
2023/03/22 06:33:52;;;;;;;0.90;0.77;;;9.60;99.90;;;;;;4401792;32;20634;-74
2023/03/22 06:36:17;;;;;;;0.90;0.60;;;9.60;99.90;;;;;;4401446;32;20073;-74
2023/03/22 06:38:43;;;;;;;0.95;0.93;;;9.60;99.90;;;;;;4401252;32;20081;-74
2023/03/22 06:41:08;;;;;;;0.68;0.68;;;9.60;99.90;;;;;;4403428;32;20160;-73
2023/03/22 06:43:34;;;;;;;0.40;0.40;;;9.70;99.90;;;;;;4400385;32;20431;-74
2023/03/22 06:45:59;;;;;;;1.08;0.85;;;9.70;99.90;;;;;;4401204;32;20158;-73
2023/03/22 06:48:25;;;;;;;1.35;0.93;;;9.70;99.90;;;;;;4398354;32;20279;-74
2023/03/22 06:50:50;;;;;;;0.50;0.50;;;9.70;99.90;;;;;;4393459;32;20058;-73
2023/03/22 06:53:17;;;;;;;1.35;1.05;;;9.70;99.90;;;;;;4387244;32;20186;-73
2023/03/22 06:55:43;;;;;;;0.57;0.55;;;9.80;99.90;;;;;;4383327;32;20541;-75
2023/03/22 06:58:09;;;;;;;0.60;0.60;;;9.80;99.90;;;;;;4376008;32;20118;-75
2023/03/22 07:00:35;;;;;;;2.22;0.80;;;9.80;99.90;;;;;;4371007;32;20473;-74
2023/03/22 07:03:02;;;;;;;5.75;0.98;;;9.80;99.90;;;;;;4364170;32;20417;-74
2023/03/22 07:05:27;;;;;;;1.60;0.80;;;9.90;99.90;;;;;;4373898;32;20149;-74
2023/03/22 07:07:53;;;;;;;1.23;1.12;;;9.90;99.90;;;;;;4365665;32;20125;-76
2023/03/22 07:10:18;;;;;;;0.50;0.50;;;9.90;99.90;;;;;;4367779;32;20109;-73
2023/03/22 07:12:44;;;;;;;0.65;0.65;;;9.90;99.90;;;;;;4377739;32;20086;-74
2023/03/22 07:15:10;;;;;;;2.20;0.88;;;10.00;99.90;;;;;;4386264;32;20478;-73
2023/03/22 07:17:35;;;;;;;1.12;0.65;;;10.00;99.90;;;;;;4372271;32;20569;-74
2023/03/22 07:20:01;;;;;;;0.62;0.62;;;10.10;99.90;;;;;;4370533;32;20099;-74
2023/03/22 07:22:26;;;;;;;6.32;2.05;;;10.10;99.90;;;;;;4373297;32;20144;-74
2023/03/22 07:24:52;;;;;;;8.32;0.80;;;10.20;99.90;;;;;;4369646;32;20458;-74
2023/03/22 07:27:18;;;;;;;1.08;0.98;;;10.20;99.90;;;;;;4362397;32;20084;-75
2023/03/22 07:29:43;;;;;;;1.27;0.73;;;10.30;99.90;;;;;;4371755;32;20094;-73
2023/03/22 07:32:10;;;;;;;1.23;0.77;;;10.20;99.90;;;;;;4365364;32;20278;-74
2023/03/22 07:34:35;;;;;;;1.35;0.95;;;10.30;99.90;;;;;;4374569;32;20555;-73
2023/03/22 07:37:02;;;;;;;1.65;0.70;;;10.30;99.90;;;;;;4382077;32;20085;-74
2023/03/22 07:39:29;;;;;;;0.80;0.80;;;10.40;99.90;;;;;;4371176;32;20094;-73
2023/03/22 07:41:56;;;;;;;0.45;0.45;;;10.40;99.90;;;;;;4368725;32;20292;-74
2023/03/22 07:44:21;;;;;;;5.78;1.23;;;10.60;99.90;;;;;;4377116;32;20098;-74
2023/03/22 07:46:49;;;;;;;0.98;0.80;;;10.60;99.90;;;;;;4376637;32;20260;-74
2023/03/22 07:49:15;;;;;;;1.42;0.75;;;10.70;99.90;;;;;;4379050;32;20138;-74
2023/03/22 07:51:40;;;;;;;0.77;0.70;;;10.70;99.90;;;;;;4379298;32;21324;-74
2023/03/22 07:54:06;;;;;;;0.80;0.80;;;10.80;99.90;;;;;;4378753;32;20081;-74
2023/03/22 07:56:32;;;;;;;0.75;0.73;;;10.80;99.90;;;;;;4374400;32;20946;-74
2023/03/22 07:58:57;;;;;;;0.55;0.55;;;10.80;99.90;;;;;;4372948;32;20239;-74
2023/03/22 08:01:23;;;;;;;0.60;0.60;;;10.80;99.90;;;;;;4380079;32;20713;-75
2023/03/22 08:03:49;;;;;;;0.60;0.60;;;10.90;99.90;;;;;;4384052;32;20121;-75
2023/03/22 08:06:17;;;;;;;0.82;0.70;;;11.00;99.90;;;;;;4373516;32;20160;-74
2023/03/22 08:08:43;;;;;;;0.70;0.70;;;11.10;99.90;;;;;;4373124;32;20545;-75
2023/03/22 08:11:11;;;;;;;3.25;1.27;;;11.20;99.90;;;;;;4369688;32;20101;-75
2023/03/22 08:13:37;;;;;;;1.48;1.20;;;11.10;99.90;;;;;;4369985;32;20117;-73
2023/03/22 08:16:05;;;;;;;0.50;0.50;;;11.20;99.90;;;;;;4369852;32;20117;-75
2023/03/22 08:18:30;;;;;;;0.62;0.55;;;11.40;99.90;;;;;;4371658;32;20963;-74
2023/03/22 08:20:57;;;;;;;2.95;0.60;;;11.40;99.90;;;;;;4371405;32;20094;-75
2023/03/22 08:23:24;;;;;;;0.70;0.70;;;11.40;99.90;;;;;;4372949;32;20101;-75
2023/03/22 08:25:51;;;;;;;0.55;0.50;;;11.50;99.90;;;;;;4367679;32;22315;-75
2023/03/22 08:28:17;;;;;;;0.50;0.50;;;11.60;99.90;;;;;;4370662;32;20086;-74
2023/03/22 08:30:44;;;;;;;0.80;0.80;;;11.70;99.90;;;;;;4366791;32;20699;-75
2023/03/22 08:33:10;;;;;;;1.30;0.93;;;11.70;99.90;;;;;;4356176;32;20109;-75
2023/03/22 08:35:36;;;;;;;0.60;0.60;;;11.80;99.90;;;;;;4367144;32;20164;-74
2023/03/22 08:38:01;;;;;;;9.38;1.23;;;11.80;99.90;;;;;;4378004;32;20466;-75
2023/03/22 08:40:27;;;;;;;2.00;1.02;;;11.90;99.90;;;;;;4386670;32;20631;-76
2023/03/22 08:42:52;;;;;;;0.60;0.60;;;11.90;99.90;;;;;;4386015;32;20100;-75
2023/03/22 08:45:18;;;;;;;0.62;0.60;;;12.00;99.90;;;;;;4390887;32;20479;-75
2023/03/22 08:47:44;;;;;;;0.88;0.88;;;12.00;99.90;;;;;;4380648;32;20201;-75
2023/03/22 08:50:10;;;;;;;1.65;0.77;;;12.00;99.90;;;;;;4374549;32;20110;-76
2023/03/22 08:52:36;;;;;;;2.45;0.70;;;12.10;99.90;;;;;;4367093;32;20097;-74
2023/03/22 08:55:05;;;;;;;0.55;0.55;;;12.20;99.90;;;;;;4370022;32;20647;-73
2023/03/22 08:57:31;;;;;;;1.17;1.00;;;12.20;99.90;;;;;;4368539;32;20129;-74
2023/03/22 08:59:57;;;;;;;1.12;0.75;;;12.30;99.90;;;;;;4362136;32;20102;-74
2023/03/22 09:02:24;;;;;;;0.50;0.50;;;12.30;99.90;;;;;;4373331;32;20105;-74
2023/03/22 09:04:49;;;;;;;2.50;0.90;;;12.40;99.90;;;;;;4376956;32;20472;-74
2023/03/22 09:07:16;;;;;;;1.55;1.08;;;12.50;99.90;;;;;;4373500;32;20094;-74
2023/03/22 09:09:47;;;;;;;0.68;0.68;;;12.60;99.90;;;;;;4373210;32;20140;-74
2023/03/22 09:12:13;;;;;;;1.25;0.73;;;12.60;99.90;;;;;;4374927;32;20089;-74
2023/03/22 09:14:39;;;;;;;3.60;1.33;;;12.70;99.90;;;;;;4373934;32;20101;-74
2023/03/22 09:17:04;;;;;;;3.03;1.52;;;12.90;99.90;;;;;;4376228;32;20328;-74
2023/03/22 09:19:30;;;;;;;0.62;0.55;;;13.10;99.90;;;;;;4369301;32;20101;-73
2023/03/22 09:21:56;;;;;;;1.08;0.80;;;13.30;99.90;;;;;;4380371;32;20148;-75
2023/03/22 09:24:21;;;;;;;17.62;1.40;;;13.50;99.90;;;;;;4360628;32;20104;-73
2023/03/22 09:26:47;;;;;;;0.80;0.80;;;13.70;99.90;;;;;;4376575;32;20126;-74
2023/03/22 09:29:13;;;;;;;2.00;0.80;;;13.90;99.90;;;;;;4379335;32;20154;-74
2023/03/22 09:31:39;;;;;;;1.17;1.05;;;14.40;99.90;;;;;;4371883;32;20189;-73
2023/03/22 09:34:04;;;;;;;13.48;3.55;;;14.60;99.90;;;;;;4376320;32;20125;-74
2023/03/22 09:36:31;;;;;;;0.80;0.80;;;14.80;99.90;;;;;;4364058;32;20180;-74
2023/03/22 09:38:58;;;;;;;0.52;0.52;;;14.80;99.90;;;;;;4358162;32;20105;-76
2023/03/22 09:41:35;;;;;;;1.23;0.88;;;14.70;99.90;;;;;;4372906;32;20077;-75
2023/03/22 09:44:05;;;;;;;0.82;0.77;;;14.70;99.90;;;;;;4383569;32;20098;-76
2023/03/22 09:46:36;;;;;;;0.70;0.70;;;14.80;99.90;;;;;;4383930;32;20648;-75
2023/03/22 09:49:06;;;;;;;0.98;0.82;;;14.70;99.90;;;;;;4385050;32;20125;-75
2023/03/22 09:51:40;;;;;;;0.62;0.62;;;14.70;99.90;;;;;;4383783;32;20110;-75
2023/03/22 09:54:31;;;;;;;0.62;0.62;;;14.80;99.90;;;;;;4371806;32;20101;-75
2023/03/22 09:57:03;;;;;;;0.75;0.70;;;14.70;99.90;;;;;;4375352;32;20879;-75
2023/03/22 09:59:55;;;;;;;3.65;2.08;;;14.70;99.90;;;;;;4379420;32;20151;-75
2023/03/22 10:02:43;;;;;;;0.40;0.40;;;14.80;99.90;;;;;;4381932;32;20098;-75
2023/03/22 10:05:32;;;;;;;3.25;1.20;;;14.80;99.90;;;;;;4377323;32;20720;-74
2023/03/22 10:08:26;;;;;;;4.15;0.98;;;15.00;99.90;;;;;;4381370;32;21062;-76
2023/03/22 10:10:53;;;;;;;3.80;0.88;;;15.20;99.90;;;;;;4377653;32;20217;-76
2023/03/22 10:13:39;;;;;;;1.87;1.35;;;15.30;99.90;;;;;;4374880;32;20254;-76
2023/03/22 10:16:10;;;;;;;0.65;0.62;;;15.20;99.90;;;;;;4380469;32;20098;-76
2023/03/22 10:18:42;;;;;;;0.73;0.70;;;15.40;99.90;;;;;;4387795;32;20121;-76
2023/03/22 10:21:10;;;;;;;0.70;0.70;;;15.50;99.90;;;;;;4397577;27;20782;-66
2023/03/22 10:23:45;;;;;;;0.90;0.75;;;15.70;99.90;;;;;;4377678;32;20105;-67
2023/03/22 10:26:33;;;;;;;0.50;0.50;;;15.60;99.90;;;;;;4384477;32;20125;-67
2023/03/22 10:29:11;;;;;;;0.50;0.50;;;15.70;99.90;;;;;;4360235;32;20073;-67
2023/03/22 10:31:38;;;;;;;0.77;0.60;;;15.80;99.90;;;;;;4349410;32;20106;-64
2023/03/22 10:34:13;;;;;;;1.98;0.90;;;15.70;99.90;;;;;;4374607;32;20569;-63
2023/03/22 10:36:40;;;;;;;0.77;0.77;;;15.70;99.90;;;;;;4380611;32;20061;-64
2023/03/22 10:39:34;;;;;;;2.62;1.00;;;15.80;99.90;;;;;;4371621;32;20105;-63
2023/03/22 10:42:03;;;;;;;2.37;1.23;;;16.00;99.90;;;;;;4373193;32;20470;-63
2023/03/22 10:44:35;;;;;;;0.57;0.57;;;16.10;99.90;;;;;;4377510;32;20168;-64
2023/03/22 10:47:06;;;;;;;0.70;0.62;;;16.00;99.90;;;;;;4382288;32;20101;-64
2023/03/22 10:49:42;;;;;;;;;;;16.00;99.90;;;;;;4372387;32;20097;-64
2023/03/22 10:52:38;;;;;;;0.57;0.57;;;16.00;99.90;;;;;;4382538;32;20061;-64
2023/03/22 10:55:09;;;;;;;0.40;0.40;;;15.90;99.90;;;;;;4376949;32;20090;-65
2023/03/22 10:57:35;;;;;;;0.50;0.50;;;16.00;99.90;;;;;;4370995;32;21511;-64
2023/03/22 11:00:10;;;;;;;0.80;0.68;;;16.00;99.90;;;;;;4363267;32;20165;-64
2023/03/22 11:02:50;;;;;;;0.62;0.62;;;16.00;99.90;;;;;;4389525;32;20097;-64
2023/03/22 11:05:26;;;;;;;0.77;0.77;;;15.90;99.90;;;;;;4384916;32;20675;-64
2023/03/22 11:07:52;;;;;;;0.75;0.75;;;16.00;99.90;;;;;;4368384;32;20656;-64
2023/03/22 11:10:26;;;;;;;6.55;2.05;;;16.10;99.90;;;;;;4369533;32;20450;-64
2023/03/22 11:12:55;;;;;;;0.70;0.70;;;16.00;99.90;;;;;;4373449;32;20185;-64
2023/03/22 11:15:26;;;;;;;0.60;0.60;;;16.10;99.90;;;;;;4374604;32;20094;-64
2023/03/22 11:17:58;;;;;;;0.90;0.70;;;16.20;99.90;;;;;;4360437;32;20078;-66
2023/03/22 11:20:23;;;;;;;0.57;0.57;;;16.30;99.90;;;;;;4380946;32;20122;-65
2023/03/22 11:22:50;;;;;;;0.60;0.60;;;16.40;99.90;;;;;;4388903;32;20133;-65
2023/03/22 11:25:25;;;;;;;0.95;0.68;;;16.30;99.90;;;;;;4391127;32;20156;-66
2023/03/22 11:28:05;;;;;;;0.68;0.52;;;16.20;99.90;;;;;;4391076;32;20153;-66
2023/03/22 11:30:33;;;;;;;0.57;0.57;;;16.10;99.90;;;;;;4372310;32;20093;-66
2023/03/22 11:33:19;;;;;;;0.70;0.70;;;16.00;99.90;;;;;;4383380;32;20615;-66
2023/03/22 11:35:52;;;;;;;0.43;0.43;;;16.10;99.90;;;;;;4380171;32;20104;-66
2023/03/22 11:38:29;;;;;;;0.60;0.60;;;16.20;99.90;;;;;;4393841;32;20824;-65
2023/03/22 11:40:59;;;;;;;3.83;0.57;;;16.20;99.90;;;;;;4381916;32;20204;-66
2023/03/22 11:43:31;;;;;;;0.50;0.50;;;16.30;99.90;;;;;;4388628;32;123877;-66
2023/03/22 11:45:58;;;;;;;0.65;0.65;;;16.50;99.90;;;;;;4393409;32;20854;-66
2023/03/22 11:48:27;;;;;;;0.50;0.50;;;16.40;99.90;;;;;;4377048;32;20933;-66
2023/03/22 11:51:02;;;;;;;0.47;0.47;;;16.50;99.90;;;;;;4379246;32;20877;-66
2023/03/22 11:53:32;;;;;;;4.35;0.60;;;16.80;99.90;;;;;;4375481;32;20296;-67
2023/03/22 11:55:59;;;;;;;0.62;0.62;;;17.00;99.90;;;;;;4363386;32;21089;-66
2023/03/22 11:58:27;;;;;;;0.57;0.50;;;17.30;99.90;;;;;;4378648;32;20097;-67
2023/03/22 12:00:58;;;;;;;0.68;0.68;;;17.50;99.90;;;;;;4378634;32;20927;-65
2023/03/22 12:03:29;;;;;;;0.57;0.57;;;17.90;99.90;;;;;;4386380;32;20090;-66
2023/03/22 12:05:57;;;;;;;0.40;0.40;;;18.10;99.90;;;;;;4398095;32;20147;-66
2023/03/22 12:08:43;;;;;;;1.00;0.50;;;18.30;99.90;;;;;;4397482;32;20102;-67
2023/03/22 12:11:21;;;;;;;2.65;0.60;;;18.30;99.90;;;;;;4395126;32;20561;-67
2023/03/22 12:13:53;;;;;;;0.60;0.60;;;18.10;99.90;;;;;;4392090;32;20093;-67
2023/03/22 12:16:26;;;;;;;1.20;0.75;;;18.40;99.90;;;;;;4390769;32;21089;-66
2023/03/22 12:19:19;;;;;;;0.70;0.70;;;18.80;99.90;;;;;;4406984;32;20583;-67
2023/03/22 12:21:47;;;;;;;0.50;0.50;;;18.90;99.90;;;;;;4388800;32;20180;-66
2023/03/22 12:24:28;;;;;;;0.55;0.55;;;18.90;99.90;;;;;;4395007;32;20152;-66
2023/03/22 12:27:01;;;;;;;1.00;0.93;;;19.40;99.90;;;;;;4392134;32;20078;-68
2023/03/22 12:29:28;;;;;;;0.30;0.30;;;19.90;99.90;;;;;;4401510;32;20331;-65
2023/03/22 12:32:02;;;;;;;0.47;0.47;;;20.00;99.90;;;;;;4393595;32;20080;-65
2023/03/22 12:34:39;;;;;;;0.60;0.60;;;19.40;99.90;;;;;;4380031;32;20086;-67
2023/03/22 12:37:08;;;;;;;0.47;0.47;;;19.10;99.90;;;;;;4394653;32;20219;-65
2023/03/22 12:39:41;;;;;;;0.40;0.40;;;19.30;99.90;;;;;;4389659;32;20152;-65
2023/03/22 12:42:22;;;;;;;0.40;0.40;;;19.50;99.90;;;;;;4384153;32;21033;-64
2023/03/22 12:44:49;;;;;;;;;;;19.70;99.90;;;;;;4383601;32;20104;-65
2023/03/22 12:47:21;;;;;;;0.60;0.60;;;20.10;99.90;;;;;;4376994;32;20598;-65
2023/03/22 12:49:59;;;;;;;4.37;0.77;;;20.10;99.90;;;;;;4382161;32;20101;-65
2023/03/22 12:52:35;;;;;;;7.68;0.85;;;20.00;99.90;;;;;;4390384;32;20459;-66
2023/03/22 12:55:02;;;;;;;0.70;0.52;;;19.70;99.90;;;;;;4385974;32;20501;-65
2023/03/22 12:57:27;;;;;;;1.85;0.40;;;20.20;99.90;;;;;;4389192;32;20080;-66
2023/03/22 12:59:59;;;;;;;0.28;0.28;;;20.40;99.50;;;;;;4396694;32;20387;-66
2023/03/22 13:02:30;;;;;;;0.30;0.30;;;19.80;99.90;;;;;;4398324;32;20090;-66
2023/03/22 13:04:59;;;;;;;2.92;0.95;;;20.10;99.90;;;;;;4390479;32;20512;-67